ADDS METAR Data INFO
IDs: Format: Raw Decoded Include TAF

Data at: 1456 UTC 11 Dec 2017

KTYQ 111435Z AUTO 19009KT 10SM BKN050 M02/M05 A3000 RMK AO2 T10201048
KTYQ 111415Z AUTO 19006KT 10SM BKN050 M02/M05 A3000 RMK AO2 T10251050
KTYQ 111355Z AUTO 20006KT 10SM OVC060 M03/M05 A3002 RMK AO2 T10301052
KTYQ 111335Z AUTO 16004KT 10SM BKN060 BKN075 OVC090 M03/M06 A3003 RMK AO2 T10341056
KTYQ 111315Z AUTO 17003KT 10SM BKN065 OVC090 M04/M06 A3004 RMK AO2 T10361056
KTYQ 111255Z AUTO 19005KT 10SM SCT065 BKN090 BKN120 M04/M06 A3004 RMK AO2 T10401056
KTYQ 111235Z AUTO 16004KT 10SM SCT090 SCT110 M04/M06 A3003 RMK AO2 T10451058
KTYQ 111215Z AUTO 17003KT 10SM BKN090 M05/M06 A3004 RMK AO2 T10461060
KTYQ 111155Z AUTO 19003KT 10SM OVC090 M05/M06 A3006 RMK AO2 T10491060 11049 21088
KTYQ 111135Z AUTO 20004KT 10SM BKN090 M05/M06 A3007 RMK AO2 T10521063
KTYQ 111115Z AUTO 00000KT 10SM SCT090 M06/M07 A3005 RMK AO2 T10571066
KTYQ 111055Z AUTO 00000KT 10SM SCT090 M06/M07 A3006 RMK AO2 T10651072
KTYQ 111035Z AUTO 16003KT 10SM CLR M08/M08 A3005 RMK AO2 T10781085
KTYQ 111015Z AUTO 00000KT 10SM CLR M08/M09 A3006 RMK AO2 T10851092
KTYQ 110955Z AUTO 23003KT 10SM CLR M08/M09 A3007 RMK AO2 T10811089
KTYQ 110935Z AUTO 21003KT 10SM CLR M09/M09 A3007 RMK AO2 T10861094
KTYQ 110915Z AUTO 00000KT 7SM CLR M08/M09 A3006 RMK AO2 T10781086
KTYQ 110855Z AUTO 00000KT 10SM CLR M08/M10 A3007 RMK AO2 T10851096
KTYQ 110835Z AUTO 00000KT 10SM CLR M07/M08 A3008 RMK AO2 T10741082
KTYQ 110815Z AUTO 00000KT 10SM CLR M08/M09 A3007 RMK AO2 T10771086
KTYQ 110755Z AUTO 00000KT 10SM CLR M06/M07 A3007 RMK AO2 T10631075
KTYQ 110735Z AUTO 27003KT 10SM CLR M07/M08 A3008 RMK AO2 T10691081
KTYQ 110715Z AUTO 00000KT 10SM CLR M07/M08 A3007 RMK AO2 T10681082
KTYQ 110655Z AUTO 30003KT 10SM CLR M06/M07 A3008 RMK AO2 T10601075
KTYQ 110635Z AUTO 30003KT 10SM CLR M06/M07 A3008 RMK AO2 T10591075
KTYQ 110615Z AUTO 27005KT 10SM CLR M06/M07 A3009 RMK AO2 T10571073
KTYQ 110555Z AUTO 28004KT 10SM CLR M05/M07 A3009 RMK AO2 T10511070 11003 21054
KTYQ 110535Z AUTO 28005KT 10SM CLR M05/M07 A3009 RMK AO2 T10521070
KTYQ 110515Z AUTO 29003KT 10SM CLR M05/M07 A3008 RMK AO2 T10511070
KTYQ 110455Z AUTO 28003KT 10SM CLR M05/M07 A3008 RMK AO2 T10461067
KTYQ 110435Z AUTO 29004KT 10SM CLR M04/M07 A3008 RMK AO2 T10421066
KTYQ 110415Z AUTO 30004KT 10SM CLR M04/M06 A3008 RMK AO2 T10381065
KTYQ 110355Z AUTO 30004KT 10SM CLR M03/M06 A3008 RMK AO2 T10351063 400251081
KTYQ 110335Z AUTO 29004KT 10SM CLR M03/M06 A3007 RMK AO2 T10311061
KTYQ 110315Z AUTO 29004KT 10SM CLR M03/M06 A3006 RMK AO2 T10281060
KTYQ 110255Z AUTO 30006KT 10SM CLR M02/M06 A3005 RMK AO2 T10201058
KTYQ 110235Z AUTO 30005KT 10SM CLR M02/M06 A3004 RMK AO2 T10201057
KTYQ 110220Z AUTO 30005KT 10SM CLR M02/M06 A3004 RMK AO2 T10181056
KTYQ 110155Z AUTO 29005KT 10SM CLR M02/M06 A3003 RMK AO2 T10161056
KTYQ 110135Z AUTO 28006KT 10SM CLR M01/M05 A3002 RMK AO2 T10111055
KTYQ 110115Z AUTO 27006KT 10SM CLR M01/M06 A3002 RMK AO2 T10141058
KTYQ 110055Z AUTO 27005KT 10SM CLR M01/M06 A3000 RMK AO2 T10121057
KTYQ 110035Z AUTO 26006KT 10SM CLR M01/M06 A3000 RMK AO2 T10101059
KTYQ 110015Z AUTO 25006KT 10SM CLR M01/M06 A2999 RMK AO2 T10081060
KTYQ 102355Z AUTO 25007KT 10SM CLR 00/M06 A2999 RMK AO2 T10021059 10025 21009
KTYQ 102335Z AUTO 24006KT 10SM CLR M01/M06 A2998 RMK AO2 T10061059
KTYQ 102315Z AUTO 23008KT 10SM CLR 00/M06 A2997 RMK AO2 T10041060
KTYQ 102255Z AUTO 24008KT 10SM CLR 00/M06 A2997 RMK AO2 T00011060
KTYQ 102235Z AUTO 25008KT 10SM CLR 01/M06 A2997 RMK AO2 T00071061
KTYQ 102215Z AUTO 24011KT 10SM CLR 01/M06 A2996 RMK AO2 T00101061
KTYQ 102155Z AUTO 25010KT 10SM CLR 02/M06 A2995 RMK AO2 T00151062
KTYQ 102135Z AUTO 24015G18KT 10SM CLR 02/M06 A2994 RMK AO2 T00171063
KTYQ 102115Z AUTO 24013G19KT 10SM CLR 02/M06 A2994 RMK AO2 T00201065
KTYQ 102055Z AUTO 24016G19KT 10SM CLR 02/M06 A2993 RMK AO2 T00201065
KTYQ 102035Z AUTO 24017G23KT 10SM CLR 02/M07 A2993 RMK AO2 T00211067
KTYQ 102015Z AUTO 23013G18KT 10SM CLR 02/M07 A2992 RMK AO2 T00221067
KTYQ 101955Z AUTO 23016G22KT 10SM CLR 02/M07 A2991 RMK AO2 T00161071
KTYQ 101935Z AUTO 21014G21KT 10SM CLR 02/M07 A2992 RMK AO2 T00151073
KTYQ 101915Z AUTO 22014G21KT 10SM CLR 01/M08 A2992 RMK AO2 T00111076
KTYQ 101855Z AUTO 20014G21KT 10SM CLR 01/M08 A2991 RMK AO2 T00051076
KTYQ 101835Z AUTO 20015KT 10SM CLR 00/M08 A2992 RMK AO2 T00031078
KTYQ 101815Z AUTO 20014G18KT 10SM CLR 00/M08 A2993 RMK AO2 T00001078
KTYQ 101755Z AUTO 21017G22KT 10SM CLR 00/M08 A2994 RMK AO2 T10031083 10000 21068
KTYQ 101735Z AUTO 21013G22KT 10SM CLR M01/M08 A2996 RMK AO2 T10101085
KTYQ 101715Z AUTO 22018G22KT 10SM SCT090 M01/M08 A2997 RMK AO2 T10081080
KTYQ 101655Z AUTO 21014G25KT 10SM OVC090 M02/M08 A2999 RMK AO2 T10181083
KTYQ 101635Z AUTO 21014G23KT 10SM OVC090 M02/M08 A3000 RMK AO2 T10211085
KTYQ 101615Z AUTO 22016G20KT 10SM OVC090 M02/M08 A3002 RMK AO2 T10251084
KTYQ 101555Z AUTO 21015G19KT 10SM OVC090 M03/M08 A3003 RMK AO2 T10321084
KTYQ 101535Z AUTO 22015KT 10SM OVC090 M04/M08 A3004 RMK AO2 T10371085
KTYQ 101515Z AUTO 21013KT 10SM OVC100 M04/M09 A3005 RMK AO2 T10391087
KTYQ 101455Z AUTO 22014G20KT 10SM OVC100 M04/M09 A3005 RMK AO2 T10411090
KTYQ 101435Z AUTO 21011G16KT 10SM OVC100 M04/M09 A3004 RMK AO2 T10451090
KTYQ 101415Z AUTO 20011G15KT 10SM OVC100 M05/M09 A3005 RMK AO2 T10481090
KTYQ 101355Z AUTO 21009KT 10SM SCT060 OVC100 M05/M09 A3006 RMK AO2 T10521091
KTYQ 101335Z AUTO 22010KT 10SM BKN070 BKN100 M05/M09 A3006 RMK AO2 T10551092
KTYQ 101315Z AUTO 21010KT 10SM SCT070 BKN090 OVC100 M06/M09 A3006 RMK AO2 T10581093
KTYQ 101255Z AUTO 21010KT 10SM OVC090 M06/M09 A3006 RMK AO2 T10611092
KTYQ 101235Z AUTO 22007KT 10SM OVC090 M06/M09 A3006 RMK AO2 T10651091
KTYQ 101215Z AUTO 21008KT 10SM OVC090 M07/M09 A3007 RMK AO2 T10661092
KTYQ 101155Z AUTO 21007KT 10SM SCT090 M07/M09 A3006 RMK AO2 T10701093 11067 21081
KTYQ 101135Z AUTO 20008KT 10SM CLR M07/M09 A3006 RMK AO2 T10711095
KTYQ 101115Z AUTO 20006KT 10SM CLR M07/M10 A3006 RMK AO2 T10751097
KTYQ 101055Z AUTO 21006KT 10SM CLR M08/M10 A3006 RMK AO2 T10771100
KTYQ 101035Z AUTO 22007KT 10SM CLR M07/M10 A3007 RMK AO2 T10751099
KTYQ 101015Z AUTO 22007KT 10SM CLR M07/M10 A3007 RMK AO2 T10751098
KTYQ 100955Z AUTO 21005KT 10SM CLR M08/M10 A3007 RMK AO2 T10781100
KTYQ 100935Z AUTO 23007KT 10SM CLR M08/M10 A3007 RMK AO2 T10771100
KTYQ 100915Z AUTO 24005KT 10SM CLR M08/M10 A3007 RMK AO2 T10781101
KTYQ 100855Z AUTO 24005KT 10SM CLR M08/M10 A3008 RMK AO2 T10801102
KTYQ 100835Z AUTO 24006KT 10SM CLR M08/M10 A3008 RMK AO2 T10781102
KTYQ 100815Z AUTO 25005KT 10SM CLR M08/M10 A3008 RMK AO2 T10781102
KTYQ 100755Z AUTO 25006KT 10SM CLR M08/M10 A3008 RMK AO2 T10781102
KTYQ 100735Z AUTO 26007KT 10SM CLR M07/M10 A3008 RMK AO2 T10741101
KTYQ 100715Z AUTO 26006KT 10SM CLR M07/M10 A3008 RMK AO2 T10721100
KTYQ 100655Z AUTO 28007KT 10SM CLR M07/M10 A3008 RMK AO2 T10711099
KTYQ 100635Z AUTO 28008KT 10SM CLR M07/M10 A3009 RMK AO2 T10701097
KTYQ 100615Z AUTO 28005KT 10SM CLR M07/M10 A3008 RMK AO2 T10701098
KTYQ 100555Z AUTO 28007KT 10SM CLR M06/M09 A3009 RMK AO2 T10651095 11025 21065
KTYQ 100535Z AUTO 27014G18KT 10SM CLR M06/M09 A3009 RMK AO2 T10611095
KTYQ 100515Z AUTO 27011G16KT 10SM CLR M06/M09 A3008 RMK AO2 T10601095
KTYQ 100455Z AUTO 28010G17KT 10SM CLR M06/M09 A3008 RMK AO2 T10571094
KTYQ 100435Z AUTO 28011G20KT 10SM CLR M05/M09 A3008 RMK AO2 T10521091
KTYQ 100415Z AUTO 27014G17KT 10SM SCT065 M04/M08 A3007 RMK AO2 T10451085
KTYQ 100355Z AUTO 28013G19KT 10SM BKN065 M04/M09 A3007 RMK AO2 T10381086 410061060
KTYQ 100335Z AUTO 29013G18KT 10SM SCT048 OVC065 M04/M08 A3006 RMK AO2 T10361081
KTYQ 100315Z AUTO 30012G20KT 10SM SCT025 SCT048 OVC065 M03/M08 A3006 RMK AO2 T10351081